createdAt,value
2018-07-05T00:00:00.502Z,60.10
2018-07-05T00:02:40.143Z,60.90
2018-07-05T00:05:20.102Z,60.10
2018-07-05T00:07:59.847Z,60.10
2018-07-05T00:10:39.599Z,60.20
2018-07-05T00:13:19.279Z,60.30
2018-07-05T00:15:58.907Z,60.40
2018-07-05T00:21:12.507Z,60.50
2018-07-05T00:23:52.175Z,60.40
2018-07-05T00:26:32.033Z,60.40
2018-07-05T00:29:11.831Z,60.40
2018-07-05T00:31:51.505Z,60.40
2018-07-05T00:34:31.435Z,61.00
2018-07-05T00:37:11.161Z,60.30
2018-07-05T00:39:50.843Z,61.00
2018-07-05T00:42:30.571Z,60.10
2018-07-05T00:45:10.334Z,60.00
2018-07-05T00:47:50.054Z,60.00
2018-07-05T00:50:29.919Z,60.00
2018-07-05T00:53:09.856Z,59.90
2018-07-05T00:55:49.523Z,60.00
2018-07-05T00:58:29.215Z,60.70
2018-07-05T01:01:08.969Z,60.00
2018-07-05T01:03:48.776Z,60.00
2018-07-05T01:06:28.477Z,60.00
2018-07-05T01:09:08.217Z,59.90
2018-07-05T01:11:47.863Z,59.90
2018-07-05T01:14:27.699Z,59.90
2018-07-05T01:17:07.593Z,59.90
2018-07-05T01:19:47.380Z,59.90
2018-07-05T01:22:27.050Z,60.00
2018-07-05T01:25:06.807Z,60.00
2018-07-05T01:27:46.461Z,60.00
2018-07-05T01:30:26.291Z,60.10
2018-07-05T01:33:06.032Z,60.00
2018-07-05T01:35:45.710Z,60.00
2018-07-05T01:38:25.417Z,60.00
2018-07-05T01:41:05.374Z,60.00
2018-07-05T01:43:45.122Z,60.10
2018-07-05T01:46:24.879Z,60.00
2018-07-05T01:49:04.668Z,60.10
2018-07-05T01:51:44.483Z,60.20
2018-07-05T01:54:24.198Z,60.20
2018-07-05T01:57:03.890Z,60.20
2018-07-05T01:59:43.684Z,60.20
2018-07-05T02:02:23.441Z,60.20
2018-07-05T02:05:03.231Z,60.30
2018-07-05T02:07:43.178Z,60.20
2018-07-05T02:10:22.907Z,60.20
2018-07-05T02:13:02.771Z,60.20
2018-07-05T02:15:42.560Z,60.10
2018-07-05T02:18:22.455Z,60.20
2018-07-05T02:21:02.178Z,60.10
2018-07-05T02:23:42.030Z,60.10
2018-07-05T02:26:21.796Z,60.10
2018-07-05T02:29:01.587Z,60.90
2018-07-05T02:34:15.025Z,59.90
2018-07-05T02:36:54.722Z,59.90
2018-07-05T02:39:39.933Z,59.90
2018-07-05T02:42:19.655Z,60.00
2018-07-05T02:44:59.281Z,59.80
2018-07-05T02:47:38.975Z,60.00
2018-07-05T02:50:18.673Z,60.00
2018-07-05T02:52:58.601Z,60.00
2018-07-05T02:55:38.377Z,60.10
2018-07-05T02:58:18.230Z,60.10
2018-07-05T03:00:57.773Z,60.00
2018-07-05T03:03:37.610Z,60.00
2018-07-05T03:06:17.238Z,59.90
2018-07-05T03:08:56.950Z,59.80
2018-07-05T03:11:36.743Z,59.70
2018-07-05T03:14:16.599Z,59.70
2018-07-05T03:16:56.371Z,59.60
2018-07-05T03:19:36.114Z,59.70
2018-07-05T03:22:15.739Z,60.50
2018-07-05T03:24:55.474Z,59.90
2018-07-05T03:27:35.255Z,59.90
2018-07-05T03:30:15.311Z,59.90
2018-07-05T03:32:55.258Z,59.90
2018-07-05T03:35:35.022Z,59.90
2018-07-05T03:38:14.804Z,59.90
2018-07-05T03:40:54.575Z,59.90
2018-07-05T03:43:34.223Z,60.00
2018-07-05T03:46:13.983Z,60.10
2018-07-05T03:48:53.810Z,60.20
2018-07-05T03:51:33.888Z,60.40
2018-07-05T03:54:13.666Z,60.40
2018-07-05T03:56:53.257Z,60.40
2018-07-05T03:59:32.870Z,61.40
2018-07-05T04:02:12.625Z,60.40
2018-07-05T04:04:52.425Z,60.40
2018-07-05T04:07:32.123Z,60.30
2018-07-05T04:10:11.891Z,60.30
2018-07-05T04:12:51.638Z,60.30
2018-07-05T04:15:31.474Z,60.40
2018-07-05T04:18:11.219Z,60.30
2018-07-05T04:20:50.893Z,60.40
2018-07-05T04:23:30.929Z,60.40
2018-07-05T04:26:10.588Z,60.60
2018-07-05T04:28:50.430Z,60.70
2018-07-05T04:31:30.297Z,60.70
2018-07-05T04:34:10.057Z,60.90
2018-07-05T04:39:23.669Z,61.20
2018-07-05T04:42:03.635Z,61.40
2018-07-05T04:44:43.226Z,61.60
2018-07-05T04:47:22.953Z,61.70
2018-07-05T04:50:02.598Z,61.90
2018-07-05T04:52:42.382Z,62.00
2018-07-05T04:55:22.197Z,62.00
2018-07-05T04:58:01.941Z,62.30
2018-07-05T05:00:41.812Z,62.50
2018-07-05T05:03:21.750Z,63.30
2018-07-05T05:06:01.434Z,62.90
2018-07-05T05:08:41.284Z,63.00
2018-07-05T05:11:21.026Z,63.80
2018-07-05T05:14:00.645Z,63.10
2018-07-05T05:16:40.330Z,63.20
2018-07-05T05:19:20.057Z,63.20
2018-07-05T05:21:59.904Z,63.30
2018-07-05T05:24:39.689Z,63.50
2018-07-05T05:27:19.503Z,63.60
2018-07-05T05:29:59.167Z,63.60
2018-07-05T05:32:38.837Z,63.70
2018-07-05T05:35:18.475Z,63.90
2018-07-05T05:37:58.150Z,64.10
2018-07-05T05:40:37.917Z,63.90
2018-07-05T05:43:17.706Z,64.00
2018-07-05T05:45:57.345Z,63.90
2018-07-05T05:48:37.162Z,63.80
2018-07-05T05:51:16.906Z,63.90
2018-07-05T05:53:56.574Z,63.90
2018-07-05T05:56:36.314Z,63.90
2018-07-05T05:59:15.982Z,64.10
2018-07-05T06:01:55.825Z,64.10
2018-07-05T06:04:35.674Z,64.10
2018-07-05T06:07:15.380Z,64.10
2018-07-05T06:09:55.051Z,64.20
2018-07-05T06:12:57.090Z,64.30
2018-07-05T06:16:08.793Z,64.40
2018-07-05T06:18:50.394Z,64.70
2018-07-05T06:21:30.375Z,64.70
2018-07-05T06:24:10.210Z,65.20
2018-07-05T06:26:49.830Z,65.20
2018-07-05T06:29:29.518Z,65.20
2018-07-05T06:32:09.179Z,65.40
2018-07-05T06:34:48.974Z,65.80
2018-07-05T06:37:28.718Z,67.70
2018-07-05T06:40:08.561Z,67.30
2018-07-05T06:42:48.279Z,66.80
2018-07-05T06:45:28.058Z,66.50
2018-07-05T06:48:07.798Z,66.30
2018-07-05T06:50:47.817Z,66.10
2018-07-05T06:53:27.478Z,65.80
2018-07-05T06:56:07.238Z,65.60
2018-07-05T06:58:46.968Z,65.40
2018-07-05T07:01:26.844Z,65.30
2018-07-05T07:04:06.794Z,65.00
2018-07-05T07:06:46.547Z,65.10
2018-07-05T07:09:26.366Z,64.90
2018-07-05T07:12:06.254Z,65.00
2018-07-05T07:14:46.002Z,64.90
2018-07-05T07:17:25.834Z,64.80
2018-07-05T07:20:05.747Z,64.90
2018-07-05T07:22:45.627Z,64.90
2018-07-05T07:25:25.448Z,65.00
2018-07-05T07:28:05.178Z,64.80
2018-07-05T07:30:44.870Z,65.00
2018-07-05T07:33:24.795Z,65.80
2018-07-05T07:36:05.047Z,65.00
2018-07-05T07:38:44.577Z,65.20
2018-07-05T07:41:24.277Z,65.40
2018-07-05T07:43:51.639Z,65.40
2018-07-05T07:46:19.027Z,65.30
2018-07-05T07:48:46.378Z,65.20
2018-07-05T07:51:13.801Z,65.20
2018-07-05T07:53:41.144Z,65.00
2018-07-05T07:56:08.496Z,64.70
2018-07-05T07:58:35.893Z,64.70
2018-07-05T08:01:03.251Z,64.90
2018-07-05T08:03:30.626Z,64.70
2018-07-05T08:05:57.983Z,64.80
2018-07-05T08:08:25.354Z,65.00
2018-07-05T08:10:52.701Z,64.80
2018-07-05T08:13:20.074Z,65.00
2018-07-05T08:15:47.426Z,65.00
2018-07-05T08:18:14.801Z,65.00
2018-07-05T08:20:42.753Z,65.10
2018-07-05T08:23:10.127Z,64.70
2018-07-05T08:25:38.064Z,65.10
2018-07-05T08:28:05.431Z,65.30
2018-07-05T08:30:32.769Z,65.00
2018-07-05T08:33:00.188Z,65.20
2018-07-05T08:35:27.542Z,65.20
2018-07-05T08:37:54.964Z,65.40
2018-07-05T08:40:22.546Z,64.70
2018-07-05T08:42:50.094Z,65.20
2018-07-05T08:45:18.146Z,65.20
2018-07-05T08:47:45.902Z,65.00
2018-07-05T08:50:13.269Z,65.30
2018-07-05T08:52:40.614Z,65.70
2018-07-05T08:55:08.001Z,65.70
2018-07-05T08:57:35.365Z,65.20
2018-07-05T09:00:02.756Z,65.50
2018-07-05T09:04:57.758Z,65.00
2018-07-05T09:07:25.104Z,66.00
2018-07-05T09:09:52.482Z,65.60
2018-07-05T09:12:19.824Z,65.30
2018-07-05T09:14:47.199Z,66.00
2018-07-05T09:17:14.549Z,66.10
2018-07-05T09:22:09.536Z,65.80
2018-07-05T09:24:36.908Z,65.90
2018-07-05T09:27:04.258Z,65.80
2018-07-05T09:29:31.636Z,65.50
2018-07-05T09:31:58.979Z,65.40
2018-07-05T09:34:26.381Z,65.30
2018-07-05T09:36:53.727Z,65.10
2018-07-05T09:39:21.098Z,65.00
2018-07-05T09:41:48.459Z,64.90
2018-07-05T09:44:15.840Z,64.80
2018-07-05T09:46:43.199Z,64.60
2018-07-05T09:49:10.592Z,64.50
2018-07-05T09:51:37.947Z,64.50
2018-07-05T09:54:05.318Z,64.50
2018-07-05T09:56:32.890Z,64.30
2018-07-05T09:59:00.444Z,64.40
2018-07-05T10:01:27.850Z,64.00
2018-07-05T10:03:55.213Z,63.90
2018-07-05T10:06:22.569Z,64.10
2018-07-05T10:08:49.938Z,64.10
2018-07-05T10:11:17.310Z,64.90
2018-07-05T10:13:44.935Z,64.00
2018-07-05T10:16:12.051Z,63.40
2018-07-05T10:18:39.426Z,63.00
2018-07-05T10:21:06.784Z,62.60
2018-07-05T10:23:34.231Z,62.40
2018-07-05T10:26:01.599Z,62.20
2018-07-05T10:28:28.957Z,62.60
2018-07-05T10:31:08.710Z,62.90
2018-07-05T10:33:49.732Z,62.90
2018-07-05T10:36:17.216Z,62.90
2018-07-05T10:38:44.574Z,63.00
2018-07-05T10:41:24.218Z,62.80
2018-07-05T10:44:03.926Z,62.10
2018-07-05T10:46:43.708Z,61.10
2018-07-05T10:49:23.487Z,60.60
2018-07-05T10:52:03.178Z,60.40
2018-07-05T10:54:42.914Z,60.30
2018-07-05T10:57:22.698Z,60.40
2018-07-05T11:00:02.439Z,60.50
2018-07-05T11:02:42.138Z,60.40
2018-07-05T11:05:21.959Z,60.20
2018-07-05T11:08:01.845Z,59.70
2018-07-05T11:10:41.659Z,59.20
2018-07-05T11:13:21.508Z,59.00
2018-07-05T11:16:01.223Z,58.90
2018-07-05T11:18:41.037Z,59.20
2018-07-05T11:21:20.774Z,59.30
2018-07-05T11:24:00.450Z,59.00
2018-07-05T11:26:40.269Z,58.90
2018-07-05T11:29:20.037Z,58.70
2018-07-05T11:32:00.101Z,58.80
2018-07-05T11:34:39.942Z,58.50
2018-07-05T11:37:20.053Z,58.50
2018-07-05T11:39:59.948Z,58.80
2018-07-05T11:42:39.639Z,59.40
2018-07-05T11:45:19.353Z,59.70
2018-07-05T11:47:59.209Z,59.90
2018-07-05T11:50:38.955Z,59.90
2018-07-05T11:53:18.914Z,60.00
2018-07-05T11:55:58.626Z,59.80
2018-07-05T11:58:38.326Z,60.10
2018-07-05T12:01:18.200Z,60.10
2018-07-05T12:03:58.053Z,60.20
2018-07-05T12:06:37.772Z,60.10
2018-07-05T12:11:51.185Z,60.20
2018-07-05T12:14:31.221Z,60.20
2018-07-05T12:17:10.974Z,59.80
2018-07-05T12:19:50.821Z,59.90
2018-07-05T12:22:30.542Z,60.30
2018-07-05T12:25:10.307Z,60.40
2018-07-05T12:27:50.105Z,60.70
2018-07-05T12:30:29.794Z,60.80
2018-07-05T12:33:09.591Z,61.10
2018-07-05T12:38:23.207Z,60.90
2018-07-05T12:41:03.279Z,61.40
2018-07-05T12:43:43.129Z,61.70
2018-07-05T12:46:22.973Z,61.70
2018-07-05T12:49:02.586Z,61.90
2018-07-05T12:51:42.208Z,62.10
2018-07-05T12:54:21.955Z,62.10
2018-07-05T12:57:01.746Z,62.00
2018-07-05T12:59:41.621Z,62.50
2018-07-05T13:02:21.298Z,62.40
2018-07-05T13:05:01.185Z,62.50
2018-07-05T13:07:40.914Z,62.50
2018-07-05T13:10:20.782Z,62.50
2018-07-05T13:13:00.547Z,63.00
2018-07-05T13:15:40.386Z,62.50
2018-07-05T13:18:20.183Z,62.70
2018-07-05T13:20:59.873Z,63.20
2018-07-05T13:23:39.701Z,63.20
2018-07-05T13:26:19.547Z,63.10
2018-07-05T13:28:59.178Z,63.20
2018-07-05T13:31:38.915Z,63.00
2018-07-05T13:34:18.773Z,63.00
2018-07-05T13:36:58.630Z,62.90
2018-07-05T13:39:38.317Z,62.90
2018-07-05T13:42:18.133Z,62.90
2018-07-05T13:44:57.841Z,62.70
2018-07-05T13:47:37.711Z,62.60
2018-07-05T13:50:17.432Z,62.30
2018-07-05T13:52:57.118Z,62.10
2018-07-05T13:55:36.912Z,61.90
2018-07-05T13:58:16.729Z,61.60
2018-07-05T14:00:56.551Z,61.90
2018-07-05T14:03:36.442Z,61.30
2018-07-05T14:06:16.179Z,61.30
2018-07-05T14:08:56.014Z,61.30
2018-07-05T14:11:35.743Z,61.20
2018-07-05T14:14:15.477Z,61.10
2018-07-05T14:16:55.250Z,61.10
2018-07-05T14:19:34.976Z,61.10
2018-07-05T14:22:14.789Z,61.00
2018-07-05T14:24:55.563Z,60.90
2018-07-05T14:30:08.954Z,60.90
2018-07-05T14:32:48.859Z,60.70
2018-07-05T14:35:28.570Z,60.60
2018-07-05T14:38:08.405Z,60.60
2018-07-05T14:40:48.399Z,60.40
2018-07-05T14:46:01.981Z,60.70
2018-07-05T14:48:41.766Z,60.50
2018-07-05T14:51:21.555Z,60.40
2018-07-05T14:54:01.472Z,60.40
2018-07-05T14:56:41.294Z,60.30
2018-07-05T14:59:21.338Z,61.40
2018-07-05T15:02:00.995Z,61.10
2018-07-05T15:04:40.760Z,60.40
2018-07-05T15:07:20.497Z,60.20
2018-07-05T15:10:00.447Z,60.40
2018-07-05T15:12:40.417Z,60.50
2018-07-05T15:15:20.133Z,60.40
2018-07-05T15:20:53.153Z,60.50
2018-07-05T15:23:32.903Z,60.60
2018-07-05T15:26:12.755Z,60.60
2018-07-05T15:28:52.713Z,60.60
2018-07-05T15:31:32.414Z,60.60
2018-07-05T15:34:12.094Z,60.60
2018-07-05T15:36:51.867Z,60.60
2018-07-05T15:39:31.678Z,60.70
2018-07-05T15:42:11.411Z,60.90
2018-07-05T15:44:51.396Z,60.70
2018-07-05T15:47:31.106Z,60.60
2018-07-05T15:50:10.773Z,60.80
2018-07-05T15:52:50.594Z,60.70
2018-07-05T15:55:30.358Z,60.80
2018-07-05T15:58:10.137Z,61.00
2018-07-05T16:00:50.362Z,61.90
2018-07-05T16:03:30.228Z,61.90
2018-07-05T16:06:10.105Z,61.80
2018-07-05T16:11:35.083Z,61.60
2018-07-05T16:14:14.865Z,61.40
2018-07-05T16:16:54.666Z,61.40
2018-07-05T16:19:34.626Z,61.90
2018-07-05T16:22:14.378Z,61.30
2018-07-05T16:24:54.243Z,61.30
2018-07-05T16:27:34.001Z,61.40
2018-07-05T16:30:13.695Z,58.50
2018-07-05T16:32:53.347Z,56.20
2018-07-05T16:35:33.507Z,54.30
2018-07-05T16:38:13.446Z,53.20
2018-07-05T16:40:53.335Z,52.70
2018-07-05T16:43:32.972Z,53.00
2018-07-05T16:46:12.667Z,51.90
2018-07-05T16:48:52.370Z,51.40
2018-07-05T16:51:32.303Z,51.10
2018-07-05T16:54:12.182Z,51.10
2018-07-05T16:56:52.150Z,51.00
2018-07-05T16:59:32.015Z,51.40
2018-07-05T17:02:11.674Z,50.80
2018-07-05T17:04:51.426Z,50.40
2018-07-05T17:07:31.164Z,50.20
2018-07-05T17:10:10.935Z,50.00
2018-07-05T17:12:50.665Z,49.70
2018-07-05T17:15:30.467Z,49.70
2018-07-05T17:18:10.285Z,49.40
2018-07-05T17:20:50.259Z,49.20
2018-07-05T17:23:29.938Z,49.40
2018-07-05T17:26:10.883Z,49.40
2018-07-05T17:28:50.772Z,49.40
2018-07-05T17:31:30.638Z,49.30
2018-07-05T17:34:10.365Z,49.30
2018-07-05T17:36:50.298Z,49.60
2018-07-05T17:39:30.070Z,49.50
2018-07-05T17:42:09.768Z,49.60
2018-07-05T17:44:49.559Z,49.70
2018-07-05T17:47:29.447Z,49.70
2018-07-05T17:50:09.228Z,49.70
2018-07-05T17:52:49.050Z,50.00
2018-07-05T17:55:28.646Z,50.00
2018-07-05T17:58:08.409Z,49.60
2018-07-05T18:00:48.215Z,50.10
2018-07-05T18:03:28.014Z,50.20
2018-07-05T18:06:07.798Z,50.30
2018-07-05T18:08:47.478Z,50.40
2018-07-05T18:11:27.136Z,50.50
2018-07-05T18:14:06.873Z,50.60
2018-07-05T18:16:46.632Z,50.70
2018-07-05T18:19:26.433Z,50.70
2018-07-05T18:22:06.282Z,50.70
2018-07-05T18:27:19.889Z,50.80
2018-07-05T18:29:59.702Z,50.90
2018-07-05T18:32:39.481Z,51.00
2018-07-05T18:35:19.129Z,51.20
2018-07-05T18:37:58.994Z,51.20
2018-07-05T18:40:38.900Z,51.30
2018-07-05T18:43:18.903Z,51.40
2018-07-05T18:45:58.698Z,51.40
2018-07-05T18:48:38.582Z,52.00
2018-07-05T18:51:18.431Z,51.40
2018-07-05T18:53:58.337Z,51.40
2018-07-05T18:56:37.981Z,51.50
2018-07-05T18:59:17.876Z,51.50
2018-07-05T19:01:57.685Z,51.60
2018-07-05T19:04:37.459Z,51.70
2018-07-05T19:07:17.179Z,52.50
2018-07-05T19:09:56.945Z,51.90
2018-07-05T19:12:36.594Z,52.00
2018-07-05T19:15:16.420Z,52.10
2018-07-05T19:17:56.145Z,52.20
2018-07-05T19:20:35.921Z,52.20
2018-07-05T19:23:15.687Z,52.30
2018-07-05T19:25:55.685Z,52.30
2018-07-05T19:28:35.365Z,52.40
2018-07-05T19:31:15.209Z,52.50
2018-07-05T19:33:54.943Z,52.50
2018-07-05T19:36:34.641Z,52.40
2018-07-05T19:39:14.310Z,52.40
2018-07-05T19:41:54.064Z,52.40
2018-07-05T19:44:33.715Z,52.30
2018-07-05T19:47:13.534Z,52.60
2018-07-05T19:49:53.325Z,52.90
2018-07-05T19:55:06.996Z,54.20
2018-07-05T19:57:46.753Z,55.00
2018-07-05T20:00:26.355Z,55.60
2018-07-05T20:03:06.240Z,56.20
2018-07-05T20:05:46.086Z,56.70
2018-07-05T20:08:25.865Z,57.10
2018-07-05T20:11:05.530Z,57.50
2018-07-05T20:13:45.301Z,57.80
2018-07-05T20:16:24.977Z,58.00
2018-07-05T20:19:04.641Z,58.20
2018-07-05T20:21:44.429Z,58.30
2018-07-05T20:24:24.097Z,58.50
2018-07-05T20:27:03.847Z,58.70
2018-07-05T20:29:43.782Z,58.90
2018-07-05T20:32:23.676Z,59.10
2018-07-05T20:35:03.469Z,59.20
2018-07-05T20:37:43.315Z,59.40
2018-07-05T20:40:23.174Z,59.60
2018-07-05T20:43:02.921Z,59.70
2018-07-05T20:45:42.885Z,59.80
2018-07-05T20:48:22.703Z,60.00
2018-07-05T20:51:02.581Z,60.20
2018-07-05T20:53:42.487Z,60.40
2018-07-05T20:56:22.508Z,60.60
2018-07-05T20:59:02.328Z,60.70
2018-07-05T21:01:42.317Z,60.90
2018-07-05T21:04:22.280Z,60.90
2018-07-05T21:07:02.200Z,61.60
2018-07-05T21:09:42.042Z,61.10
2018-07-05T21:12:21.763Z,61.20
2018-07-05T21:15:01.619Z,61.40
2018-07-05T21:17:41.339Z,61.50
2018-07-05T21:20:21.037Z,61.60
2018-07-05T21:23:00.797Z,61.70
2018-07-05T21:25:40.616Z,61.80
2018-07-05T21:28:20.302Z,62.00
2018-07-05T21:30:59.902Z,62.10
2018-07-05T21:33:39.670Z,62.10
2018-07-05T21:36:19.382Z,62.20
2018-07-05T21:38:59.104Z,62.30
2018-07-05T21:41:38.682Z,62.50
2018-07-05T21:44:18.562Z,62.60
2018-07-05T21:46:58.375Z,62.60
2018-07-05T21:49:38.089Z,62.70
2018-07-05T21:52:18.081Z,62.80
2018-07-05T21:54:57.699Z,62.90
2018-07-05T21:57:37.473Z,63.10
2018-07-05T22:00:17.382Z,63.00
2018-07-05T22:02:57.567Z,63.10
2018-07-05T22:05:37.495Z,63.30
2018-07-05T22:08:17.242Z,63.30
2018-07-05T22:10:57.114Z,63.40
2018-07-05T22:13:37.038Z,63.50
2018-07-05T22:16:16.886Z,63.70
2018-07-05T22:19:02.144Z,63.70
2018-07-05T22:21:47.333Z,63.90
2018-07-05T22:24:32.611Z,63.90
2018-07-05T22:27:17.873Z,63.90
2018-07-05T22:30:03.082Z,63.90
2018-07-05T22:32:42.835Z,63.90
2018-07-05T22:35:22.537Z,64.10
2018-07-05T22:38:02.323Z,64.10
2018-07-05T22:40:42.046Z,64.10
2018-07-05T22:43:21.824Z,64.30
2018-07-05T22:46:01.424Z,64.30
2018-07-05T22:48:41.106Z,64.40
2018-07-05T22:51:20.932Z,64.60
2018-07-05T22:54:00.841Z,64.70
2018-07-05T22:56:40.613Z,64.80
2018-07-05T22:59:20.487Z,64.90
2018-07-05T23:02:00.211Z,64.90
2018-07-05T23:04:40.044Z,65.10
2018-07-05T23:07:19.738Z,65.10
2018-07-05T23:09:59.475Z,65.10
2018-07-05T23:12:39.329Z,65.20
2018-07-05T23:15:19.082Z,65.30
2018-07-05T23:17:58.917Z,65.50
2018-07-05T23:20:38.882Z,65.40
2018-07-05T23:23:18.631Z,65.60
2018-07-05T23:25:58.404Z,65.70
2018-07-05T23:28:38.063Z,65.80
2018-07-05T23:31:17.966Z,65.30
2018-07-05T23:33:57.703Z,66.00
2018-07-05T23:36:37.376Z,66.10
2018-07-05T23:39:17.105Z,66.20
2018-07-05T23:41:56.932Z,66.10
2018-07-05T23:44:36.781Z,66.10
2018-07-05T23:47:16.725Z,66.20
2018-07-05T23:49:56.604Z,66.40
2018-07-05T23:52:36.273Z,66.40
2018-07-05T23:55:15.938Z,66.50
2018-07-05T23:57:55.577Z,66.60
